SBOSBO SJO / MROC
Speedbird OnlineSpeedbird Online SJO / MROC

Juan Santamaria International Airport
03:36 21°C

Location San Jose, Costa Rica
Latitude: 9.993860244750977
Longitude: -84.20880126953125
Local Time 03:36 on 17 Jun 2024
UTC -6 hours (America/Costa_Rica)
Currency £1 equals CRC 667.34
METAR MROC 170900Z 14002KT 9999 FEW008 BKN025 21/20 A3001 NOSIG
TAF MROC 170701Z 1707/1806 30002KT 9999 FEW015 TX28/1718Z TN19/1711Z TEMPO 1707/1709 BKN015 TEMPO 1711/1714 09005KT TEMPO 1719/1724 5000 RA FEW015TCU TEMPO 1800/1804 3000 RA BR BKN010 BECMG 1804/1806 07005KT
Weather As Of 17 Jun 2024 03:36
Description Broken clouds
Wind 4 km/h from South-East (140°)
Cloud Cover 75%
Precipitation Rain: none, Snow: none
Sunrise 05:16
Sunset 17:59
NOTAM 26 active NOTAM
Rotations During the last 90 days there were
12 flights from LGW
12 flights to LGW
Lounges VIP Santamaría, Terminal 1
Web Wikipedia
Codes IATA: SJO
ICAO: MROC
Altitude 921 Meter / 3021 Feet
Distance 8,748 KM / 5,436 Miles
from London.
Runways
RunwayLength (m)Surface
073012Asphalt
253012Asphalt
Radio
TypeDescriptionFrequency
ACCCOCO CON119.6
APPCOCO APP120.5
CLDCLNC121.3
GNDGND121.9
RDOCOCO RDO126.8
TWRCOCO TWR118.6
Live ATC



Support Speedbird Online

© 2017-2024 Speedbird Online